sensor_id;sensor_type;location;lat;lon;timestamp;P1;durP1;ratioP1;P2;durP2;ratioP2
44145;SDS011;29809;52.432;4.780;2022-11-30T00:00:23;1.90;;;1.80;;
44145;SDS011;29809;52.432;4.780;2022-11-30T00:02:49;2.38;;;2.03;;
44145;SDS011;29809;52.432;4.780;2022-11-30T00:05:17;2.40;;;1.90;;
44145;SDS011;29809;52.432;4.780;2022-11-30T00:07:42;1.70;;;1.58;;
44145;SDS011;29809;52.432;4.780;2022-11-30T00:10:08;2.28;;;1.77;;
44145;SDS011;29809;52.432;4.780;2022-11-30T00:12:33;5.95;;;1.88;;
44145;SDS011;29809;52.432;4.780;2022-11-30T00:14:58;3.60;;;1.95;;
44145;SDS011;29809;52.432;4.780;2022-11-30T00:17:23;2.47;;;2.13;;
44145;SDS011;29809;52.432;4.780;2022-11-30T00:19:49;2.30;;;2.10;;
44145;SDS011;29809;52.432;4.780;2022-11-30T00:22:14;2.67;;;2.08;;
44145;SDS011;29809;52.432;4.780;2022-11-30T00:24:39;2.50;;;2.30;;
44145;SDS011;29809;52.432;4.780;2022-11-30T00:27:04;3.22;;;2.60;;
44145;SDS011;29809;52.432;4.780;2022-11-30T00:29:30;2.53;;;2.30;;
44145;SDS011;29809;52.432;4.780;2022-11-30T00:31:55;3.58;;;2.50;;
44145;SDS011;29809;52.432;4.780;2022-11-30T00:34:20;2.85;;;2.42;;
44145;SDS011;29809;52.432;4.780;2022-11-30T00:36:45;2.90;;;2.60;;
44145;SDS011;29809;52.432;4.780;2022-11-30T00:39:10;3.22;;;2.15;;
44145;SDS011;29809;52.432;4.780;2022-11-30T00:41:36;2.67;;;2.33;;
44145;SDS011;29809;52.432;4.780;2022-11-30T00:44:01;3.80;;;2.10;;
44145;SDS011;29809;52.432;4.780;2022-11-30T00:46:26;4.45;;;2.45;;
44145;SDS011;29809;52.432;4.780;2022-11-30T00:48:51;2.50;;;2.30;;
44145;SDS011;29809;52.432;4.780;2022-11-30T00:51:17;2.67;;;2.40;;
44145;SDS011;29809;52.432;4.780;2022-11-30T00:53:43;3.10;;;2.70;;
44145;SDS011;29809;52.432;4.780;2022-11-30T00:56:08;2.85;;;2.63;;
44145;SDS011;29809;52.432;4.780;2022-11-30T00:58:34;3.00;;;2.58;;
44145;SDS011;29809;52.432;4.780;2022-11-30T01:00:59;3.78;;;2.92;;
44145;SDS011;29809;52.432;4.780;2022-11-30T01:03:24;2.78;;;2.42;;
44145;SDS011;29809;52.432;4.780;2022-11-30T01:05:50;5.25;;;2.78;;
44145;SDS011;29809;52.432;4.780;2022-11-30T01:08:15;2.80;;;2.60;;
44145;SDS011;29809;52.432;4.780;2022-11-30T01:10:41;2.65;;;2.45;;
44145;SDS011;29809;52.432;4.780;2022-11-30T01:13:07;3.00;;;2.53;;
44145;SDS011;29809;52.432;4.780;2022-11-30T01:15:36;3.05;;;2.85;;
44145;SDS011;29809;52.432;4.780;2022-11-30T01:18:02;5.32;;;2.33;;
44145;SDS011;29809;52.432;4.780;2022-11-30T01:20:27;3.08;;;2.78;;
44145;SDS011;29809;52.432;4.780;2022-11-30T01:22:53;3.58;;;3.28;;
44145;SDS011;29809;52.432;4.780;2022-11-30T01:25:19;3.15;;;2.80;;
44145;SDS011;29809;52.432;4.780;2022-11-30T01:27:47;2.90;;;2.70;;
44145;SDS011;29809;52.432;4.780;2022-11-30T01:30:12;3.05;;;2.85;;
44145;SDS011;29809;52.432;4.780;2022-11-30T01:32:37;3.58;;;3.28;;
44145;SDS011;29809;52.432;4.780;2022-11-30T01:35:02;3.30;;;3.10;;
44145;SDS011;29809;52.432;4.780;2022-11-30T01:37:28;3.53;;;3.22;;
44145;SDS011;29809;52.432;4.780;2022-11-30T01:39:54;3.72;;;3.42;;
44145;SDS011;29809;52.432;4.780;2022-11-30T01:42:19;3.72;;;3.40;;
44145;SDS011;29809;52.432;4.780;2022-11-30T01:44:52;3.22;;;2.92;;
44145;SDS011;29809;52.432;4.780;2022-11-30T01:47:18;4.43;;;3.05;;
44145;SDS011;29809;52.432;4.780;2022-11-30T01:49:49;3.47;;;3.10;;
44145;SDS011;29809;52.432;4.780;2022-11-30T01:52:32;3.63;;;3.35;;
44145;SDS011;29809;52.432;4.780;2022-11-30T01:57:33;3.75;;;3.45;;
44145;SDS011;29809;52.432;4.780;2022-11-30T01:59:59;3.88;;;3.47;;
44145;SDS011;29809;52.432;4.780;2022-11-30T02:02:27;3.63;;;3.33;;
44145;SDS011;29809;52.432;4.780;2022-11-30T02:04:54;3.78;;;3.45;;
44145;SDS011;29809;52.432;4.780;2022-11-30T02:07:20;3.53;;;3.33;;
44145;SDS011;29809;52.432;4.780;2022-11-30T02:09:45;4.05;;;3.75;;
44145;SDS011;29809;52.432;4.780;2022-11-30T02:12:15;3.90;;;3.60;;
44145;SDS011;29809;52.432;4.780;2022-11-30T02:14:47;3.90;;;3.60;;
44145;SDS011;29809;52.432;4.780;2022-11-30T02:20:18;3.70;;;3.33;;
44145;SDS011;29809;52.432;4.780;2022-11-30T02:22:56;3.42;;;3.13;;
44145;SDS011;29809;52.432;4.780;2022-11-30T02:30:29;4.03;;;3.30;;
44145;SDS011;29809;52.432;4.780;2022-11-30T02:33:04;3.63;;;3.33;;
44145;SDS011;29809;52.432;4.780;2022-11-30T02:35:31;3.50;;;3.20;;
44145;SDS011;29809;52.432;4.780;2022-11-30T02:37:57;3.65;;;3.35;;
44145;SDS011;29809;52.432;4.780;2022-11-30T02:40:24;3.45;;;3.17;;
44145;SDS011;29809;52.432;4.780;2022-11-30T02:42:51;3.88;;;3.58;;
44145;SDS011;29809;52.432;4.780;2022-11-30T02:45:18;4.30;;;3.90;;
44145;SDS011;29809;52.432;4.780;2022-11-30T02:48:27;4.55;;;3.85;;
44145;SDS011;29809;52.432;4.780;2022-11-30T02:50:34;3.50;;;3.20;;
44145;SDS011;29809;52.432;4.780;2022-11-30T02:53:01;4.22;;;3.83;;
44145;SDS011;29809;52.432;4.780;2022-11-30T02:55:26;4.22;;;3.85;;
44145;SDS011;29809;52.432;4.780;2022-11-30T02:57:52;3.70;;;3.40;;
44145;SDS011;29809;52.432;4.780;2022-11-30T03:00:17;4.10;;;3.80;;
44145;SDS011;29809;52.432;4.780;2022-11-30T03:02:43;4.15;;;3.80;;
44145;SDS011;29809;52.432;4.780;2022-11-30T03:05:08;4.38;;;3.90;;
44145;SDS011;29809;52.432;4.780;2022-11-30T03:07:34;4.43;;;4.03;;
44145;SDS011;29809;52.432;4.780;2022-11-30T03:09:59;4.35;;;3.95;;
44145;SDS011;29809;52.432;4.780;2022-11-30T03:12:25;4.07;;;3.67;;
44145;SDS011;29809;52.432;4.780;2022-11-30T03:14:50;4.00;;;3.70;;
44145;SDS011;29809;52.432;4.780;2022-11-30T03:17:15;4.72;;;4.32;;
44145;SDS011;29809;52.432;4.780;2022-11-30T03:19:41;4.10;;;3.55;;
44145;SDS011;29809;52.432;4.780;2022-11-30T03:22:06;5.13;;;3.97;;
44145;SDS011;29809;52.432;4.780;2022-11-30T03:24:31;5.18;;;4.78;;
44145;SDS011;29809;52.432;4.780;2022-11-30T03:26:57;4.43;;;4.03;;
44145;SDS011;29809;52.432;4.780;2022-11-30T03:29:22;4.47;;;4.07;;
44145;SDS011;29809;52.432;4.780;2022-11-30T03:31:47;5.22;;;4.10;;
44145;SDS011;29809;52.432;4.780;2022-11-30T03:34:12;4.97;;;4.13;;
44145;SDS011;29809;52.432;4.780;2022-11-30T03:36:38;4.20;;;3.88;;
44145;SDS011;29809;52.432;4.780;2022-11-30T03:39:03;4.32;;;3.92;;
44145;SDS011;29809;52.432;4.780;2022-11-30T03:41:28;4.30;;;3.83;;
44145;SDS011;29809;52.432;4.780;2022-11-30T03:43:53;4.45;;;4.00;;
44145;SDS011;29809;52.432;4.780;2022-11-30T03:46:19;4.90;;;4.18;;
44145;SDS011;29809;52.432;4.780;2022-11-30T03:48:44;5.45;;;4.38;;
44145;SDS011;29809;52.432;4.780;2022-11-30T03:51:10;4.40;;;4.00;;
44145;SDS011;29809;52.432;4.780;2022-11-30T03:53:35;4.13;;;3.72;;
44145;SDS011;29809;52.432;4.780;2022-11-30T03:56:02;4.70;;;4.07;;
44145;SDS011;29809;52.432;4.780;2022-11-30T03:58:27;4.05;;;3.65;;
44145;SDS011;29809;52.432;4.780;2022-11-30T04:03:24;3.92;;;3.47;;
44145;SDS011;29809;52.432;4.780;2022-11-30T04:05:49;3.67;;;3.38;;
44145;SDS011;29809;52.432;4.780;2022-11-30T04:08:14;5.68;;;3.97;;
44145;SDS011;29809;52.432;4.780;2022-11-30T04:10:39;4.35;;;3.95;;
44145;SDS011;29809;52.432;4.780;2022-11-30T04:13:05;4.50;;;4.10;;
44145;SDS011;29809;52.432;4.780;2022-11-30T04:15:30;4.00;;;3.65;;
44145;SDS011;29809;52.432;4.780;2022-11-30T04:17:55;4.35;;;3.95;;
44145;SDS011;29809;52.432;4.780;2022-11-30T04:20:20;4.13;;;3.80;;
44145;SDS011;29809;52.432;4.780;2022-11-30T04:22:46;5.57;;;3.95;;
44145;SDS011;29809;52.432;4.780;2022-11-30T04:25:11;4.25;;;3.85;;
44145;SDS011;29809;52.432;4.780;2022-11-30T04:27:36;3.78;;;3.47;;
44145;SDS011;29809;52.432;4.780;2022-11-30T04:30:02;4.00;;;3.70;;
44145;SDS011;29809;52.432;4.780;2022-11-30T04:32:27;4.68;;;4.28;;
44145;SDS011;29809;52.432;4.780;2022-11-30T04:34:52;4.65;;;4.25;;
44145;SDS011;29809;52.432;4.780;2022-11-30T04:37:18;4.63;;;4.22;;
44145;SDS011;29809;52.432;4.780;2022-11-30T04:39:43;4.25;;;3.85;;
44145;SDS011;29809;52.432;4.780;2022-11-30T04:42:08;4.28;;;3.88;;
44145;SDS011;29809;52.432;4.780;2022-11-30T04:44:34;4.95;;;4.45;;
44145;SDS011;29809;52.432;4.780;2022-11-30T04:46:59;4.00;;;3.70;;
44145;SDS011;29809;52.432;4.780;2022-11-30T04:49:24;4.68;;;4.28;;
44145;SDS011;29809;52.432;4.780;2022-11-30T04:51:49;5.18;;;4.25;;
44145;SDS011;29809;52.432;4.780;2022-11-30T04:54:15;3.85;;;3.53;;
44145;SDS011;29809;52.432;4.780;2022-11-30T04:56:40;4.05;;;3.75;;
44145;SDS011;29809;52.432;4.780;2022-11-30T04:59:05;4.53;;;4.13;;
44145;SDS011;29809;52.432;4.780;2022-11-30T05:01:30;5.10;;;3.78;;
44145;SDS011;29809;52.432;4.780;2022-11-30T05:03:56;5.00;;;4.30;;
44145;SDS011;29809;52.432;4.780;2022-11-30T05:06:23;4.50;;;4.10;;
44145;SDS011;29809;52.432;4.780;2022-11-30T05:08:52;4.55;;;4.15;;
44145;SDS011;29809;52.432;4.780;2022-11-30T05:11:17;4.97;;;4.45;;
44145;SDS011;29809;52.432;4.780;2022-11-30T05:13:42;4.25;;;3.92;;
44145;SDS011;29809;52.432;4.780;2022-11-30T05:16:07;4.72;;;4.32;;
44145;SDS011;29809;52.432;4.780;2022-11-30T05:18:34;4.90;;;4.43;;
44145;SDS011;29809;52.432;4.780;2022-11-30T05:20:59;4.03;;;3.60;;
44145;SDS011;29809;52.432;4.780;2022-11-30T05:23:25;3.83;;;3.53;;
44145;SDS011;29809;52.432;4.780;2022-11-30T05:25:50;4.28;;;3.97;;
44145;SDS011;29809;52.432;4.780;2022-11-30T05:28:15;4.75;;;4.10;;
44145;SDS011;29809;52.432;4.780;2022-11-30T05:30:41;4.70;;;4.10;;
44145;SDS011;29809;52.432;4.780;2022-11-30T05:33:07;4.60;;;4.20;;
44145;SDS011;29809;52.432;4.780;2022-11-30T05:35:32;4.05;;;3.65;;
44145;SDS011;29809;52.432;4.780;2022-11-30T05:37:57;4.50;;;4.10;;
44145;SDS011;29809;52.432;4.780;2022-11-30T05:40:23;4.43;;;4.13;;
44145;SDS011;29809;52.432;4.780;2022-11-30T05:42:53;5.22;;;4.10;;
44145;SDS011;29809;52.432;4.780;2022-11-30T05:45:18;5.00;;;3.78;;
44145;SDS011;29809;52.432;4.780;2022-11-30T05:47:44;4.80;;;3.97;;
44145;SDS011;29809;52.432;4.780;2022-11-30T05:50:09;8.18;;;4.38;;
44145;SDS011;29809;52.432;4.780;2022-11-30T05:52:34;4.78;;;3.97;;
44145;SDS011;29809;52.432;4.780;2022-11-30T05:54:59;4.13;;;3.72;;
44145;SDS011;29809;52.432;4.780;2022-11-30T05:57:25;4.88;;;4.15;;
44145;SDS011;29809;52.432;4.780;2022-11-30T05:59:50;4.85;;;4.30;;
44145;SDS011;29809;52.432;4.780;2022-11-30T06:02:15;4.38;;;3.97;;
44145;SDS011;29809;52.432;4.780;2022-11-30T06:04:40;45.38;;;10.23;;
44145;SDS011;29809;52.432;4.780;2022-11-30T06:07:06;119.60;;;39.58;;
44145;SDS011;29809;52.432;4.780;2022-11-30T06:09:35;130.68;;;36.60;;
44145;SDS011;29809;52.432;4.780;2022-11-30T06:12:00;118.88;;;36.55;;
44145;SDS011;29809;52.432;4.780;2022-11-30T06:14:26;89.30;;;32.45;;
44145;SDS011;29809;52.432;4.780;2022-11-30T06:16:51;97.22;;;31.70;;
44145;SDS011;29809;52.432;4.780;2022-11-30T06:19:16;86.28;;;29.80;;
44145;SDS011;29809;52.432;4.780;2022-11-30T06:21:41;82.75;;;29.67;;
44145;SDS011;29809;52.432;4.780;2022-11-30T06:24:07;78.07;;;27.48;;
44145;SDS011;29809;52.432;4.780;2022-11-30T06:26:32;66.55;;;29.10;;
44145;SDS011;29809;52.432;4.780;2022-11-30T06:28:57;72.53;;;25.55;;
44145;SDS011;29809;52.432;4.780;2022-11-30T06:31:22;63.30;;;24.23;;
44145;SDS011;29809;52.432;4.780;2022-11-30T06:33:48;60.53;;;24.70;;
44145;SDS011;29809;52.432;4.780;2022-11-30T06:36:13;55.78;;;23.45;;
44145;SDS011;29809;52.432;4.780;2022-11-30T06:38:43;49.58;;;20.88;;
44145;SDS011;29809;52.432;4.780;2022-11-30T06:41:09;41.95;;;20.38;;
44145;SDS011;29809;52.432;4.780;2022-11-30T06:43:36;43.42;;;18.60;;
44145;SDS011;29809;52.432;4.780;2022-11-30T06:46:02;42.95;;;18.60;;
44145;SDS011;29809;52.432;4.780;2022-11-30T06:48:27;38.10;;;18.55;;
44145;SDS011;29809;52.432;4.780;2022-11-30T06:50:53;36.45;;;17.30;;
44145;SDS011;29809;52.432;4.780;2022-11-30T06:53:18;38.80;;;16.73;;
44145;SDS011;29809;52.432;4.780;2022-11-30T06:55:43;32.35;;;15.90;;
44145;SDS011;29809;52.432;4.780;2022-11-30T06:58:09;33.85;;;15.88;;
44145;SDS011;29809;52.432;4.780;2022-11-30T07:00:35;33.45;;;14.68;;
44145;SDS011;29809;52.432;4.780;2022-11-30T07:03:00;30.80;;;15.02;;
44145;SDS011;29809;52.432;4.780;2022-11-30T07:05:26;25.70;;;14.52;;
44145;SDS011;29809;52.432;4.780;2022-11-30T07:07:51;26.65;;;13.00;;
44145;SDS011;29809;52.432;4.780;2022-11-30T07:10:17;25.30;;;13.25;;
44145;SDS011;29809;52.432;4.780;2022-11-30T07:12:42;23.15;;;13.20;;
44145;SDS011;29809;52.432;4.780;2022-11-30T07:15:09;21.77;;;12.82;;
44145;SDS011;29809;52.432;4.780;2022-11-30T07:17:34;23.23;;;11.50;;
44145;SDS011;29809;52.432;4.780;2022-11-30T07:20:00;21.25;;;10.73;;
44145;SDS011;29809;52.432;4.780;2022-11-30T07:22:25;19.95;;;10.80;;
44145;SDS011;29809;52.432;4.780;2022-11-30T07:24:50;18.80;;;10.20;;
44145;SDS011;29809;52.432;4.780;2022-11-30T07:27:34;26.25;;;10.75;;
44145;SDS011;29809;52.432;4.780;2022-11-30T07:29:59;19.70;;;10.38;;
44145;SDS011;29809;52.432;4.780;2022-11-30T07:32:24;17.15;;;10.10;;
44145;SDS011;29809;52.432;4.780;2022-11-30T07:34:50;14.63;;;10.25;;
44145;SDS011;29809;52.432;4.780;2022-11-30T07:37:15;16.90;;;9.10;;
44145;SDS011;29809;52.432;4.780;2022-11-30T07:39:40;17.23;;;9.40;;
44145;SDS011;29809;52.432;4.780;2022-11-30T07:42:05;14.07;;;10.05;;
44145;SDS011;29809;52.432;4.780;2022-11-30T07:44:31;15.18;;;9.05;;
44145;SDS011;29809;52.432;4.780;2022-11-30T07:46:56;12.02;;;8.63;;
44145;SDS011;29809;52.432;4.780;2022-11-30T07:49:22;15.07;;;8.43;;
44145;SDS011;29809;52.432;4.780;2022-11-30T07:51:47;14.02;;;8.25;;
44145;SDS011;29809;52.432;4.780;2022-11-30T07:54:12;12.05;;;8.63;;
44145;SDS011;29809;52.432;4.780;2022-11-30T07:56:37;10.82;;;8.25;;
44145;SDS011;29809;52.432;4.780;2022-11-30T07:59:03;11.20;;;7.85;;
44145;SDS011;29809;52.432;4.780;2022-11-30T08:01:29;10.40;;;7.78;;
44145;SDS011;29809;52.432;4.780;2022-11-30T08:03:54;11.05;;;7.70;;
44145;SDS011;29809;52.432;4.780;2022-11-30T08:06:24;11.32;;;7.47;;
44145;SDS011;29809;52.432;4.780;2022-11-30T08:08:50;11.55;;;7.82;;
44145;SDS011;29809;52.432;4.780;2022-11-30T08:11:17;12.77;;;7.18;;
44145;SDS011;29809;52.432;4.780;2022-11-30T08:13:42;9.32;;;7.65;;
44145;SDS011;29809;52.432;4.780;2022-11-30T08:16:12;9.48;;;6.88;;
44145;SDS011;29809;52.432;4.780;2022-11-30T08:18:37;7.45;;;6.53;;
44145;SDS011;29809;52.432;4.780;2022-11-30T08:21:05;9.40;;;6.75;;
44145;SDS011;29809;52.432;4.780;2022-11-30T08:23:31;8.95;;;7.25;;
44145;SDS011;29809;52.432;4.780;2022-11-30T08:26:01;8.98;;;6.68;;
44145;SDS011;29809;52.432;4.780;2022-11-30T08:28:27;9.07;;;7.35;;
44145;SDS011;29809;52.432;4.780;2022-11-30T08:30:53;8.88;;;7.20;;
44145;SDS011;29809;52.432;4.780;2022-11-30T08:33:18;9.02;;;7.65;;
44145;SDS011;29809;52.432;4.780;2022-11-30T08:35:43;8.23;;;7.05;;
44145;SDS011;29809;52.432;4.780;2022-11-30T08:38:08;9.13;;;7.40;;
44145;SDS011;29809;52.432;4.780;2022-11-30T08:40:33;8.80;;;7.30;;
44145;SDS011;29809;52.432;4.780;2022-11-30T08:42:59;10.50;;;6.65;;
44145;SDS011;29809;52.432;4.780;2022-11-30T08:45:24;7.93;;;6.63;;
44145;SDS011;29809;52.432;4.780;2022-11-30T08:47:49;9.07;;;7.25;;
44145;SDS011;29809;52.432;4.780;2022-11-30T08:50:15;9.13;;;6.82;;
44145;SDS011;29809;52.432;4.780;2022-11-30T08:52:40;10.90;;;6.57;;
44145;SDS011;29809;52.432;4.780;2022-11-30T08:55:05;8.93;;;7.43;;
44145;SDS011;29809;52.432;4.780;2022-11-30T08:57:31;7.90;;;6.32;;
44145;SDS011;29809;52.432;4.780;2022-11-30T08:59:57;6.70;;;5.97;;
44145;SDS011;29809;52.432;4.780;2022-11-30T09:02:22;7.28;;;6.57;;
44145;SDS011;29809;52.432;4.780;2022-11-30T09:04:47;9.02;;;7.03;;
44145;SDS011;29809;52.432;4.780;2022-11-30T09:07:13;7.30;;;6.20;;
44145;SDS011;29809;52.432;4.780;2022-11-30T09:09:38;6.90;;;6.20;;
44145;SDS011;29809;52.432;4.780;2022-11-30T09:12:04;7.10;;;6.10;;
44145;SDS011;29809;52.432;4.780;2022-11-30T09:14:30;7.57;;;6.75;;
44145;SDS011;29809;52.432;4.780;2022-11-30T09:16:55;6.63;;;6.00;;
44145;SDS011;29809;52.432;4.780;2022-11-30T09:19:20;8.57;;;6.97;;
44145;SDS011;29809;52.432;4.780;2022-11-30T09:21:46;7.85;;;6.55;;
44145;SDS011;29809;52.432;4.780;2022-11-30T09:24:11;8.18;;;6.82;;
44145;SDS011;29809;52.432;4.780;2022-11-30T09:26:36;6.95;;;6.25;;
44145;SDS011;29809;52.432;4.780;2022-11-30T09:29:01;8.45;;;6.53;;
44145;SDS011;29809;52.432;4.780;2022-11-30T09:31:27;6.68;;;6.00;;
44145;SDS011;29809;52.432;4.780;2022-11-30T09:33:53;7.55;;;6.28;;
44145;SDS011;29809;52.432;4.780;2022-11-30T09:36:20;7.25;;;5.97;;
44145;SDS011;29809;52.432;4.780;2022-11-30T09:38:45;7.32;;;6.63;;
44145;SDS011;29809;52.432;4.780;2022-11-30T09:46:10;8.52;;;6.40;;
44145;SDS011;29809;52.432;4.780;2022-11-30T09:48:40;7.78;;;6.97;;
44145;SDS011;29809;52.432;4.780;2022-11-30T09:51:09;7.78;;;6.97;;
44145;SDS011;29809;52.432;4.780;2022-11-30T09:56:04;7.57;;;6.78;;
44145;SDS011;29809;52.432;4.780;2022-11-30T09:58:38;7.80;;;6.85;;
44145;SDS011;29809;52.432;4.780;2022-11-30T10:01:15;7.47;;;6.78;;
44145;SDS011;29809;52.432;4.780;2022-11-30T10:03:41;8.02;;;7.22;;
44145;SDS011;29809;52.432;4.780;2022-11-30T10:06:07;7.75;;;7.05;;
44145;SDS011;29809;52.432;4.780;2022-11-30T10:11:05;7.88;;;7.18;;
44145;SDS011;29809;52.432;4.780;2022-11-30T10:18:32;8.05;;;7.35;;
44145;SDS011;29809;52.432;4.780;2022-11-30T10:23:40;8.18;;;7.38;;
44145;SDS011;29809;52.432;4.780;2022-11-30T10:26:15;8.52;;;7.25;;
44145;SDS011;29809;52.432;4.780;2022-11-30T10:28:48;8.85;;;6.95;;
44145;SDS011;29809;52.432;4.780;2022-11-30T10:31:15;8.10;;;7.40;;
44145;SDS011;29809;52.432;4.780;2022-11-30T10:33:48;8.05;;;7.25;;
44145;SDS011;29809;52.432;4.780;2022-11-30T10:38:48;8.38;;;7.50;;
44145;SDS011;29809;52.432;4.780;2022-11-30T10:41:19;8.15;;;7.35;;
44145;SDS011;29809;52.432;4.780;2022-11-30T10:43:57;8.70;;;7.80;;
44145;SDS011;29809;52.432;4.780;2022-11-30T10:46:25;7.63;;;6.97;;
44145;SDS011;29809;52.432;4.780;2022-11-30T10:48:58;8.10;;;7.32;;
44145;SDS011;29809;52.432;4.780;2022-11-30T10:51:27;8.15;;;7.35;;
44145;SDS011;29809;52.432;4.780;2022-11-30T10:53:53;7.80;;;7.00;;
44145;SDS011;29809;52.432;4.780;2022-11-30T10:56:18;7.97;;;7.18;;
44145;SDS011;29809;52.432;4.780;2022-11-30T11:01:10;7.45;;;6.82;;
44145;SDS011;29809;52.432;4.780;2022-11-30T11:03:35;6.93;;;6.30;;
44145;SDS011;29809;52.432;4.780;2022-11-30T11:06:02;7.65;;;6.65;;
44145;SDS011;29809;52.432;4.780;2022-11-30T11:08:29;7.95;;;7.15;;
44145;SDS011;29809;52.432;4.780;2022-11-30T11:10:54;7.53;;;6.72;;
44145;SDS011;29809;52.432;4.780;2022-11-30T11:13:35;7.65;;;6.95;;
44145;SDS011;29809;52.432;4.780;2022-11-30T11:16:01;7.40;;;6.57;;
44145;SDS011;29809;52.432;4.780;2022-11-30T11:18:27;6.57;;;5.97;;
44145;SDS011;29809;52.432;4.780;2022-11-30T11:21:01;6.93;;;6.32;;
44145;SDS011;29809;52.432;4.780;2022-11-30T11:23:37;7.53;;;6.65;;
44145;SDS011;29809;52.432;4.780;2022-11-30T11:26:03;6.40;;;5.80;;
44145;SDS011;29809;52.432;4.780;2022-11-30T11:28:29;6.78;;;6.07;;
44145;SDS011;29809;52.432;4.780;2022-11-30T11:30:56;6.20;;;5.60;;
44145;SDS011;29809;52.432;4.780;2022-11-30T11:33:26;6.13;;;5.63;;
44145;SDS011;29809;52.432;4.780;2022-11-30T11:35:52;6.80;;;5.93;;
44145;SDS011;29809;52.432;4.780;2022-11-30T11:38:27;5.82;;;5.32;;
44145;SDS011;29809;52.432;4.780;2022-11-30T11:40:54;6.53;;;5.93;;
44145;SDS011;29809;52.432;4.780;2022-11-30T11:43:20;6.38;;;5.47;;
44145;SDS011;29809;52.432;4.780;2022-11-30T11:45:54;6.57;;;5.95;;
44145;SDS011;29809;52.432;4.780;2022-11-30T11:48:27;6.55;;;5.95;;
44145;SDS011;29809;52.432;4.780;2022-11-30T11:50:57;5.78;;;5.28;;
44145;SDS011;29809;52.432;4.780;2022-11-30T11:53:23;5.95;;;5.40;;
44145;SDS011;29809;52.432;4.780;2022-11-30T11:56:01;5.32;;;4.82;;
44145;SDS011;29809;52.432;4.780;2022-11-30T11:58:34;6.38;;;5.72;;
44145;SDS011;29809;52.432;4.780;2022-11-30T12:01:01;6.18;;;5.68;;
44145;SDS011;29809;52.432;4.780;2022-11-30T12:03:32;6.13;;;5.53;;
44145;SDS011;29809;52.432;4.780;2022-11-30T12:06:02;7.38;;;5.95;;
44145;SDS011;29809;52.432;4.780;2022-11-30T12:11:13;5.72;;;5.22;;
44145;SDS011;29809;52.432;4.780;2022-11-30T12:13:41;5.85;;;5.30;;
44145;SDS011;29809;52.432;4.780;2022-11-30T12:18:49;6.10;;;5.57;;
44145;SDS011;29809;52.432;4.780;2022-11-30T12:21:21;5.70;;;5.20;;
44145;SDS011;29809;52.432;4.780;2022-11-30T12:24:14;6.55;;;5.95;;
44145;SDS011;29809;52.432;4.780;2022-11-30T12:26:39;5.47;;;4.97;;
44145;SDS011;29809;52.432;4.780;2022-11-30T12:29:23;5.70;;;5.18;;
44145;SDS011;29809;52.432;4.780;2022-11-30T12:39:56;6.15;;;5.55;;
44145;SDS011;29809;52.432;4.780;2022-11-30T12:43:02;5.22;;;4.72;;
44145;SDS011;29809;52.432;4.780;2022-11-30T12:45:47;5.53;;;5.03;;
44145;SDS011;29809;52.432;4.780;2022-11-30T12:53:12;5.38;;;4.88;;
44145;SDS011;29809;52.432;4.780;2022-11-30T12:55:44;6.68;;;5.53;;
44145;SDS011;29809;52.432;4.780;2022-11-30T13:03:21;6.53;;;6.00;;
44145;SDS011;29809;52.432;4.780;2022-11-30T13:05:50;6.07;;;5.57;;
44145;SDS011;29809;52.432;4.780;2022-11-30T13:11:00;6.00;;;5.50;;
44145;SDS011;29809;52.432;4.780;2022-11-30T13:13:30;6.68;;;5.95;;
44145;SDS011;29809;52.432;4.780;2022-11-30T13:15:56;6.30;;;5.80;;
44145;SDS011;29809;52.432;4.780;2022-11-30T13:18:22;6.28;;;5.72;;
44145;SDS011;29809;52.432;4.780;2022-11-30T13:21:02;6.65;;;6.00;;
44145;SDS011;29809;52.432;4.780;2022-11-30T13:26:25;7.00;;;5.63;;
44145;SDS011;29809;52.432;4.780;2022-11-30T13:41:44;6.15;;;5.65;;
44145;SDS011;29809;52.432;4.780;2022-11-30T13:47:05;6.57;;;6.00;;
44145;SDS011;29809;52.432;4.780;2022-11-30T13:49:39;6.35;;;5.85;;
44145;SDS011;29809;52.432;4.780;2022-11-30T13:52:04;7.20;;;6.50;;
44145;SDS011;29809;52.432;4.780;2022-11-30T13:54:43;7.07;;;6.38;;
44145;SDS011;29809;52.432;4.780;2022-11-30T13:59:55;6.75;;;6.15;;
44145;SDS011;29809;52.432;4.780;2022-11-30T14:07:40;6.53;;;5.93;;
44145;SDS011;29809;52.432;4.780;2022-11-30T14:12:55;6.47;;;5.97;;
44145;SDS011;29809;52.432;4.780;2022-11-30T14:16:03;5.35;;;4.93;;
44145;SDS011;29809;52.432;4.780;2022-11-30T14:20:36;7.05;;;6.45;;
44145;SDS011;29809;52.432;4.780;2022-11-30T14:23:07;6.53;;;5.95;;
44145;SDS011;29809;52.432;4.780;2022-11-30T14:25:35;6.25;;;5.75;;
44145;SDS011;29809;52.432;4.780;2022-11-30T14:28:01;6.60;;;6.00;;
44145;SDS011;29809;52.432;4.780;2022-11-30T14:30:28;6.00;;;5.50;;
44145;SDS011;29809;52.432;4.780;2022-11-30T14:32:56;6.55;;;5.93;;
44145;SDS011;29809;52.432;4.780;2022-11-30T14:35:26;6.53;;;5.93;;
44145;SDS011;29809;52.432;4.780;2022-11-30T14:37:53;6.38;;;5.88;;
44145;SDS011;29809;52.432;4.780;2022-11-30T14:40:19;6.55;;;5.82;;
44145;SDS011;29809;52.432;4.780;2022-11-30T14:42:53;6.47;;;5.88;;
44145;SDS011;29809;52.432;4.780;2022-11-30T14:45:29;6.63;;;6.03;;
44145;SDS011;29809;52.432;4.780;2022-11-30T14:48:16;6.50;;;5.90;;
44145;SDS011;29809;52.432;4.780;2022-11-30T14:50:42;6.78;;;6.07;;
44145;SDS011;29809;52.432;4.780;2022-11-30T14:55:49;7.22;;;6.38;;
44145;SDS011;29809;52.432;4.780;2022-11-30T15:01:00;8.13;;;7.43;;
44145;SDS011;29809;52.432;4.780;2022-11-30T15:03:33;7.53;;;6.80;;
44145;SDS011;29809;52.432;4.780;2022-11-30T15:05:59;6.82;;;6.22;;
44145;SDS011;29809;52.432;4.780;2022-11-30T15:08:35;6.70;;;6.10;;
44145;SDS011;29809;52.432;4.780;2022-11-30T15:11:05;7.25;;;6.60;;
44145;SDS011;29809;52.432;4.780;2022-11-30T15:13:30;7.28;;;6.57;;
44145;SDS011;29809;52.432;4.780;2022-11-30T15:15:56;7.05;;;6.38;;
44145;SDS011;29809;52.432;4.780;2022-11-30T15:18:22;7.28;;;6.57;;
44145;SDS011;29809;52.432;4.780;2022-11-30T15:23:13;7.43;;;6.72;;
44145;SDS011;29809;52.432;4.780;2022-11-30T15:25:39;7.50;;;6.80;;
44145;SDS011;29809;52.432;4.780;2022-11-30T15:28:06;7.50;;;6.80;;
44145;SDS011;29809;52.432;4.780;2022-11-30T15:30:33;7.47;;;6.68;;
44145;SDS011;29809;52.432;4.780;2022-11-30T15:32:59;6.90;;;6.30;;
44145;SDS011;29809;52.432;4.780;2022-11-30T15:35:25;8.02;;;7.13;;
44145;SDS011;29809;52.432;4.780;2022-11-30T15:37:50;16.20;;;7.65;;
44145;SDS011;29809;52.432;4.780;2022-11-30T15:40:33;7.45;;;6.75;;
44145;SDS011;29809;52.432;4.780;2022-11-30T15:42:59;11.07;;;7.85;;
44145;SDS011;29809;52.432;4.780;2022-11-30T15:45:31;8.43;;;7.53;;
44145;SDS011;29809;52.432;4.780;2022-11-30T15:47:59;7.90;;;7.15;;
44145;SDS011;29809;52.432;4.780;2022-11-30T15:50:30;7.60;;;6.90;;
44145;SDS011;29809;52.432;4.780;2022-11-30T15:53:00;9.98;;;7.68;;
44145;SDS011;29809;52.432;4.780;2022-11-30T15:55:44;8.82;;;7.40;;
44145;SDS011;29809;52.432;4.780;2022-11-30T16:06:19;7.55;;;6.85;;
44145;SDS011;29809;52.432;4.780;2022-11-30T16:08:45;7.95;;;7.18;;
44145;SDS011;29809;52.432;4.780;2022-11-30T16:11:11;8.27;;;7.40;;
44145;SDS011;29809;52.432;4.780;2022-11-30T16:13:36;7.72;;;7.03;;
44145;SDS011;29809;52.432;4.780;2022-11-30T16:16:01;8.77;;;7.88;;
44145;SDS011;29809;52.432;4.780;2022-11-30T16:18:27;8.82;;;7.93;;
44145;SDS011;29809;52.432;4.780;2022-11-30T16:20:56;8.50;;;7.60;;
44145;SDS011;29809;52.432;4.780;2022-11-30T16:23:22;8.98;;;8.18;;
44145;SDS011;29809;52.432;4.780;2022-11-30T16:25:47;8.80;;;8.00;;
44145;SDS011;29809;52.432;4.780;2022-11-30T16:28:14;8.95;;;8.05;;
44145;SDS011;29809;52.432;4.780;2022-11-30T16:30:40;10.07;;;9.07;;
44145;SDS011;29809;52.432;4.780;2022-11-30T16:33:09;9.75;;;8.80;;